Time;durP1;ratioP1;P1;durP2;ratioP2;P2;SDS_P1;SDS_P2;PMS_P1;PMS_P2;Temp;Humidity;BMP_temperature;BMP_pressure;BME280_temperature;BME280_humidity;BME280_pressure;Samples;Min_cycle;Max_cycle;Signal;HPM_P1;HPM_P2
2023/06/07 00:01:08;;;;;;;13.43;7.45;;;;;;;15.77;78.62;101989.06;4962431;28;20724;-90
2023/06/07 00:03:36;;;;;;;15.65;7.55;;;;;;;15.80;79.73;101999.47;4962957;28;20607;-89
2023/06/07 00:06:02;;;;;;;11.50;6.80;;;;;;;15.75;80.39;101990.03;4979238;28;20030;-90
2023/06/07 00:08:33;;;;;;;16.02;7.13;;;;;;;15.73;80.34;101995.31;4960981;28;20049;-90
2023/06/07 00:10:58;;;;;;;10.98;6.50;;;;;;;15.74;80.26;102002.25;4978999;28;20059;-89
2023/06/07 00:13:24;;;;;;;12.65;7.10;;;;;;;15.69;80.15;101995.44;4977650;28;20065;-90
2023/06/07 00:15:55;;;;;;;13.70;7.13;;;;;;;15.68;80.11;102006.78;4958499;28;20042;-89
2023/06/07 00:18:25;;;;;;;14.35;6.80;;;;;;;15.66;80.58;102001.59;4978919;28;20053;-90
2023/06/07 00:20:52;;;;;;;15.23;6.82;;;;;;;15.62;80.07;102005.19;4961134;28;20630;-89
2023/06/07 00:23:18;;;;;;;13.30;6.88;;;;;;;15.59;79.38;102005.25;4960949;28;20048;-89
2023/06/07 00:25:44;;;;;;;12.65;7.22;;;;;;;15.54;80.10;101993.22;4978550;28;20621;-89
2023/06/07 00:28:10;;;;;;;16.08;7.38;;;;;;;15.54;81.13;101990.59;4959720;28;20148;-89
2023/06/07 00:30:35;;;;;;;16.30;7.45;;;;;;;15.55;80.58;101992.31;4960147;28;20034;-90
2023/06/07 00:33:03;;;;;;;14.13;7.32;;;;;;;15.53;81.36;101989.75;4958400;28;20089;-90
2023/06/07 00:35:29;;;;;;;14.10;7.05;;;;;;;15.52;80.98;101995.81;4977399;28;20049;-90
2023/06/07 00:37:54;;;;;;;14.88;7.82;;;;;;;15.52;80.57;101990.59;4960119;28;20030;-90
2023/06/07 00:40:23;;;;;;;12.82;7.07;;;;;;;15.49;79.64;101998.50;4967400;28;20042;-90
2023/06/07 00:42:48;;;;;;;15.05;7.70;;;;;;;15.39;80.23;101997.03;4979114;28;20175;-89
2023/06/07 00:45:14;;;;;;;15.23;7.05;;;;;;;15.45;81.07;102001.25;4966603;28;20117;-90
2023/06/07 00:47:40;;;;;;;13.60;7.30;;;;;;;15.39;79.57;101994.41;4973878;28;20050;-90
2023/06/07 00:50:07;;;;;;;14.80;7.07;;;;;;;15.36;80.29;101990.13;4982528;28;20061;-90
2023/06/07 00:52:34;;;;;;;12.82;6.80;;;;;;;15.32;80.64;101992.84;4988780;28;20158;-90
2023/06/07 00:55:05;;;;;;;13.43;7.53;;;;;;;15.34;80.36;101996.31;4983825;28;20513;-89
2023/06/07 00:57:38;;;;;;;13.73;7.10;;;;;;;15.34;80.85;101997.16;4976901;28;20034;-89
2023/06/07 01:00:10;;;;;;;14.55;7.20;;;;;;;15.28;80.44;101986.88;4974932;28;20109;-90
2023/06/07 01:02:36;;;;;;;15.63;7.53;;;;;;;15.27;80.81;102000.81;4977540;28;20038;-90
2023/06/07 01:05:02;;;;;;;12.38;7.05;;;;;;;15.26;81.65;101985.19;4978744;28;20049;-90
2023/06/07 01:07:28;;;;;;;14.75;7.38;;;;;;;15.24;81.26;101990.44;4977113;28;20038;-90
2023/06/07 01:09:54;;;;;;;15.75;7.00;;;;;;;15.25;81.98;101988.69;4980742;28;20390;-90
2023/06/07 01:12:21;;;;;;;13.25;6.85;;;;;;;15.13;79.94;101978.53;4996494;28;20492;-89
2023/06/07 01:14:49;;;;;;;12.93;7.60;;;;;;;15.18;82.01;101990.59;4979120;28;20089;-90
2023/06/07 01:17:18;;;;;;;14.73;6.93;;;;;;;15.11;82.39;101989.00;4981089;28;20043;-90
2023/06/07 01:19:52;;;;;;;12.60;7.13;;;;;;;15.10;82.25;101995.13;4979167;28;20064;-93
2023/06/07 01:22:20;;;;;;;13.43;7.30;;;;;;;15.03;82.10;101983.09;4980717;28;20128;-93
2023/06/07 01:24:47;;;;;;;15.32;7.97;;;;;;;15.00;83.03;101981.44;4982458;28;20042;-93
2023/06/07 01:27:13;;;;;;;15.13;7.93;;;;;;;15.02;82.16;101984.00;4986142;28;20038;-94
2023/06/07 01:29:39;;;;;;;12.73;7.63;;;;;;;15.01;81.62;101988.38;4980632;28;20038;-93
2023/06/07 01:32:07;;;;;;;14.90;7.70;;;;;;;14.94;82.74;101971.13;4980247;28;20164;-93
2023/06/07 01:34:37;;;;;;;14.35;7.53;;;;;;;14.94;82.82;101970.28;4984304;28;20102;-94
2023/06/07 01:37:05;;;;;;;13.95;7.38;;;;;;;14.86;83.04;101978.31;4979155;28;20042;-94
2023/06/07 01:39:32;;;;;;;15.02;8.25;;;;;;;14.85;83.65;101976.59;4982784;28;20050;-94
2023/06/07 01:42:00;;;;;;;14.02;7.45;;;;;;;14.88;83.31;101973.88;4978994;28;20052;-93
2023/06/07 01:44:26;;;;;;;17.25;7.80;;;;;;;14.83;82.30;101974.88;4978432;28;20038;-93
2023/06/07 01:46:52;;;;;;;15.75;7.85;;;;;;;14.78;83.60;101976.75;4980936;28;20061;-93
2023/06/07 01:49:19;;;;;;;14.23;8.05;;;;;;;14.75;83.74;101974.19;4979869;28;20035;-89
2023/06/07 01:51:50;;;;;;;16.45;7.78;;;;;;;14.75;83.07;101980.28;4977354;28;20122;-89
2023/06/07 01:54:18;;;;;;;16.65;7.53;;;;;;;14.67;83.10;101970.94;4975074;28;20030;-90
2023/06/07 01:57:05;;;;;;;17.23;8.57;;;;;;;14.65;82.84;101981.41;4997388;28;20410;-90
2023/06/07 02:00:06;;;;;;;15.13;8.55;;;;;;;14.56;83.71;101977.22;4979407;28;20038;-90
2023/06/07 02:02:37;;;;;;;15.27;7.93;;;;;;;14.55;84.50;101975.50;4981582;28;20125;-90
2023/06/07 02:05:09;;;;;;;14.50;7.60;;;;;;;14.55;84.87;101979.88;4980562;28;20041;-89
2023/06/07 02:07:53;;;;;;;16.35;8.35;;;;;;;14.57;84.38;101975.47;4984118;28;20129;-89
2023/06/07 02:10:28;;;;;;;16.23;8.15;;;;;;;14.48;85.08;101968.72;4985547;28;20042;-89
2023/06/07 02:13:00;;;;;;;16.50;7.68;;;;;;;14.48;85.01;101966.09;4979289;28;20085;-89
2023/06/07 02:15:28;;;;;;;18.35;8.35;;;;;;;14.45;84.87;101968.78;4981679;28;20410;-89
2023/06/07 02:17:58;;;;;;;20.55;8.65;;;;;;;14.43;85.64;101967.97;4975887;28;20038;-90
2023/06/07 02:20:34;;;;;;;15.25;8.38;;;;;;;14.45;85.37;101978.38;4982934;28;20046;-89
2023/06/07 02:23:00;;;;;;;15.40;7.97;;;;;;;14.35;84.33;101964.63;4976788;28;20054;-90
2023/06/07 02:25:26;;;;;;;14.48;8.00;;;;;;;14.40;84.49;101982.78;4976396;28;20174;-89
2023/06/07 02:27:54;;;;;;;15.77;8.30;;;;;;;14.37;84.93;101977.63;4980256;28;20413;-89
2023/06/07 02:30:20;;;;;;;15.45;8.18;;;;;;;14.34;85.75;101975.06;4983526;28;20043;-94
2023/06/07 02:32:48;;;;;;;17.80;8.10;;;;;;;14.32;86.39;101971.66;4984107;28;20044;-93
2023/06/07 02:35:15;;;;;;;16.88;8.73;;;;;;;14.37;85.67;101980.25;4981806;28;20038;-94
2023/06/07 02:37:45;;;;;;;15.40;8.65;;;;;;;14.27;86.01;101963.91;4981516;28;20050;-94
2023/06/07 02:40:11;;;;;;;15.93;8.32;;;;;;;14.27;86.28;101965.66;4981633;28;20031;-94
2023/06/07 02:42:37;;;;;;;16.13;8.20;;;;;;;14.27;85.64;101971.72;4980735;28;20049;-94
2023/06/07 02:45:04;;;;;;;17.65;8.40;;;;;;;14.17;84.49;101970.22;4983097;28;20038;-94
2023/06/07 02:47:30;;;;;;;18.08;8.30;;;;;;;14.14;85.79;101971.13;4983970;28;20073;-93
2023/06/07 02:49:57;;;;;;;16.83;8.38;;;;;;;14.18;86.32;101974.56;4983577;28;20093;-94
2023/06/07 02:52:22;;;;;;;17.23;8.90;;;;;;;14.13;86.93;101973.78;4982100;28;20060;-94
2023/06/07 02:54:48;;;;;;;17.90;8.10;;;;;;;14.15;86.58;101988.50;4980948;28;20039;-93
2023/06/07 02:57:14;;;;;;;15.70;8.77;;;;;;;14.16;87.33;101987.63;4983892;28;20030;-95
2023/06/07 02:59:42;;;;;;;17.77;8.90;;;;;;;14.10;86.28;101972.09;4978828;28;20039;-92
2023/06/07 03:02:10;;;;;;;16.60;8.73;;;;;;;14.06;86.60;101970.44;4978981;28;20030;-94
2023/06/07 03:04:38;;;;;;;17.52;8.10;;;;;;;14.04;87.33;101976.59;4985696;28;20117;-93
2023/06/07 03:07:05;;;;;;;14.85;8.05;;;;;;;14.10;87.13;101987.75;4982131;28;20045;-93
2023/06/07 03:09:33;;;;;;;15.40;8.20;;;;;;;14.01;87.51;101976.63;5000799;28;20031;-93
2023/06/07 03:11:58;;;;;;;15.20;7.70;;;;;;;14.02;87.72;101975.75;4983303;28;20030;-93
2023/06/07 03:14:24;;;;;;;16.05;8.38;;;;;;;13.99;87.82;101979.25;4981997;28;20061;-93
2023/06/07 03:16:51;;;;;;;17.50;8.55;;;;;;;13.96;87.11;101976.72;4983746;28;20034;-94
2023/06/07 03:19:17;;;;;;;20.80;9.00;;;;;;;13.95;87.78;101979.34;4982051;28;20042;-94
2023/06/07 03:21:44;;;;;;;16.20;8.30;;;;;;;13.98;87.74;101984.53;4981811;28;20038;-92
2023/06/07 03:24:13;;;;;;;15.75;8.20;;;;;;;13.97;87.56;101990.63;4982117;28;20056;-93
2023/06/07 03:26:42;;;;;;;15.20;8.07;;;;;;;13.92;87.67;101977.66;4979057;28;20487;-93
2023/06/07 03:29:09;;;;;;;15.20;8.13;;;;;;;13.90;87.36;101979.47;4985141;28;20043;-93
2023/06/07 03:31:35;;;;;;;18.00;8.30;;;;;;;13.84;86.92;101977.84;4981302;28;20038;-93
2023/06/07 03:34:00;;;;;;;16.58;8.20;;;;;;;13.90;88.14;101987.28;4985869;28;20037;-94
2023/06/07 03:36:28;;;;;;;17.65;7.97;;;;;;;13.82;87.52;101983.94;4989380;28;20041;-94
2023/06/07 03:38:55;;;;;;;15.63;8.20;;;;;;;13.85;88.42;101987.34;4983761;28;20028;-93
2023/06/07 03:41:26;;;;;;;14.68;8.05;;;;;;;13.81;87.16;101995.25;4982160;28;20053;-94
2023/06/07 03:43:54;;;;;;;13.70;7.65;;;;;;;13.74;87.96;101973.66;4980638;28;20044;-94
2023/06/07 03:46:22;;;;;;;19.73;8.48;;;;;;;13.81;88.60;101987.44;4979872;28;20121;-93
2023/06/07 03:48:51;;;;;;;15.45;7.68;;;;;;;13.74;88.43;101981.47;4981590;28;20081;-93
2023/06/07 03:51:16;;;;;;;17.48;8.25;;;;;;;13.74;88.36;101991.03;4981792;28;20022;-94
2023/06/07 03:53:42;;;;;;;16.50;7.78;;;;;;;13.72;88.79;101982.38;4980965;28;20163;-93
2023/06/07 03:56:10;;;;;;;15.90;7.78;;;;;;;13.71;89.22;101985.91;4981656;28;20045;-93
2023/06/07 03:58:36;;;;;;;17.60;7.50;;;;;;;13.73;88.88;101995.41;4986035;28;20057;-93
2023/06/07 04:01:06;;;;;;;15.13;7.68;;;;;;;13.72;89.08;101987.59;4980181;28;20030;-94
2023/06/07 04:03:31;;;;;;;18.05;7.72;;;;;;;13.73;88.92;101979.75;4986263;28;20041;-93
2023/06/07 04:05:57;;;;;;;16.42;7.97;;;;;;;13.74;89.06;101991.03;4980078;28;20046;-93
2023/06/07 04:08:23;;;;;;;18.27;7.80;;;;;;;13.76;89.16;101984.94;4981229;28;20458;-94
2023/06/07 04:10:52;;;;;;;15.30;7.80;;;;;;;13.71;89.38;101978.09;4984761;28;20034;-94
2023/06/07 04:13:18;;;;;;;15.63;7.88;;;;;;;13.72;88.12;101992.81;4986598;28;20498;-93
2023/06/07 04:15:45;;;;;;;13.30;6.97;;;;;;;13.63;88.23;101977.38;4976423;28;20038;-92
2023/06/07 04:18:11;;;;;;;15.05;7.82;;;;;;;13.64;88.26;101986.91;4976654;28;20058;-94
2023/06/07 04:20:38;;;;;;;16.38;8.00;;;;;;;13.65;88.75;101981.63;4979604;28;20034;-93
2023/06/07 04:23:04;;;;;;;17.38;7.72;;;;;;;13.63;88.12;101979.97;4977257;28;20050;-94
2023/06/07 04:25:36;;;;;;;18.10;7.85;;;;;;;13.68;88.58;101988.56;4978081;28;20042;-94
2023/06/07 04:28:04;;;;;;;18.17;8.05;;;;;;;13.64;89.06;101976.47;4978278;28;20038;-93
2023/06/07 04:30:36;;;;;;;15.27;7.18;;;;;;;13.67;88.91;101985.09;4985614;28;20038;-93
2023/06/07 04:33:08;;;;;;;17.10;8.07;;;;;;;13.67;87.90;101986.81;4980279;28;20106;-93
2023/06/07 04:35:43;;;;;;;20.05;8.13;;;;;;;13.67;88.43;101994.66;4980713;28;20102;-93
2023/06/07 04:38:15;;;;;;;17.67;7.53;;;;;;;13.68;89.16;102004.19;4981594;28;20030;-93
2023/06/07 04:40:48;;;;;;;16.83;8.38;;;;;;;13.69;90.31;102006.78;4980279;28;20077;-89
2023/06/07 04:43:18;;;;;;;17.27;7.47;;;;;;;13.73;89.29;102004.97;4981581;28;20038;-89
2023/06/07 04:45:46;;;;;;;17.05;7.68;;;;;;;13.70;89.20;101995.47;4977231;28;20069;-88
2023/06/07 04:48:12;;;;;;;19.27;8.02;;;;;;;13.69;89.54;101992.88;4974996;28;20133;-89
2023/06/07 04:50:41;;;;;;;15.35;8.13;;;;;;;13.73;89.37;102002.34;4994101;28;20104;-89
2023/06/07 04:53:08;;;;;;;16.40;7.63;;;;;;;13.74;87.61;102006.69;4996517;28;20068;-89
2023/06/07 04:55:34;;;;;;;14.45;7.57;;;;;;;13.73;88.96;102008.41;4977906;28;20101;-89
2023/06/07 04:58:07;;;;;;;17.95;8.20;;;;;;;13.74;88.94;102004.94;4975385;28;20062;-88
2023/06/07 05:00:33;;;;;;;16.05;7.43;;;;;;;13.75;88.53;101992.78;4978701;28;20050;-88
2023/06/07 05:03:08;;;;;;;15.65;7.68;;;;;;;13.76;88.21;101991.88;4977721;28;20512;-89
2023/06/07 05:05:34;;;;;;;16.05;7.32;;;;;;;13.86;89.34;101998.63;4981894;28;20072;-90
2023/06/07 05:08:07;;;;;;;16.17;7.50;;;;;;;13.87;88.89;102004.69;4974090;28;20041;-90
2023/06/07 05:10:33;;;;;;;18.23;8.43;;;;;;;13.93;89.32;101997.63;4979139;28;20234;-90
2023/06/07 05:12:58;;;;;;;16.55;7.38;;;;;;;13.97;89.58;101999.31;4979881;28;20110;-90
2023/06/07 05:15:23;;;;;;;14.05;7.28;;;;;;;14.04;90.19;101992.22;4979369;28;20044;-89
2023/06/07 05:17:50;;;;;;;13.32;6.90;;;;;;;14.14;89.53;102001.56;4975332;28;20041;-89
2023/06/07 05:20:16;;;;;;;15.85;7.53;;;;;;;14.15;88.13;102009.38;4993781;28;20069;-89
2023/06/07 05:22:43;;;;;;;18.77;7.55;;;;;;;14.19;86.00;102016.22;4976816;28;20034;-89
2023/06/07 05:25:10;;;;;;;17.15;7.47;;;;;;;14.20;88.11;102011.88;4978227;28;20578;-88
2023/06/07 05:27:37;;;;;;;15.40;7.47;;;;;;;14.14;86.39;102005.03;4980796;28;20069;-89
2023/06/07 05:30:04;;;;;;;15.05;7.15;;;;;;;14.13;86.44;102013.75;4975562;28;20779;-89
2023/06/07 05:32:34;;;;;;;16.52;6.93;;;;;;;14.12;87.91;102009.44;4983043;28;20093;-89
2023/06/07 05:35:03;;;;;;;15.88;7.78;;;;;;;14.09;87.87;102000.81;4981485;28;20035;-90
2023/06/07 05:37:30;;;;;;;16.77;7.50;;;;;;;14.14;88.37;101994.59;4979258;28;20042;-89
2023/06/07 05:39:58;;;;;;;14.68;7.38;;;;;;;14.24;87.71;102008.31;4982548;28;20470;-90
2023/06/07 05:42:24;;;;;;;15.10;7.65;;;;;;;14.29;87.45;102003.00;4979243;28;20066;-89
2023/06/07 05:44:54;;;;;;;15.15;8.10;;;;;;;14.28;85.17;101996.94;4982535;28;20108;-89
2023/06/07 05:47:20;;;;;;;15.38;7.22;;;;;;;14.32;86.62;102000.34;4983502;28;20090;-89
2023/06/07 05:49:46;;;;;;;16.08;7.40;;;;;;;14.32;86.87;101995.13;4983398;28;20038;-89
2023/06/07 05:52:13;;;;;;;16.70;7.47;;;;;;;14.33;84.86;102007.28;4966037;28;20449;-89
2023/06/07 05:54:47;;;;;;;14.30;7.32;;;;;;;14.42;87.15;102014.94;4963266;28;20026;-89
2023/06/07 05:57:13;;;;;;;16.50;7.53;;;;;;;14.38;86.22;102014.16;4967669;28;20042;-89
2023/06/07 05:59:38;;;;;;;17.08;7.93;;;;;;;14.45;87.70;102014.91;4982708;28;20427;-89
2023/06/07 06:02:07;;;;;;;15.45;7.68;;;;;;;14.39;85.10;102010.66;4961349;28;20037;-89
2023/06/07 06:04:32;;;;;;;14.43;7.57;;;;;;;14.47;85.28;102023.53;4962562;28;20041;-89
2023/06/07 06:06:58;;;;;;;17.55;7.45;;;;;;;14.51;86.43;102025.19;4982119;28;20039;-90
2023/06/07 06:09:23;;;;;;;14.30;6.82;;;;;;;14.55;84.96;102034.66;4961763;28;20026;-89
2023/06/07 06:11:50;;;;;;;18.88;7.50;;;;;;;14.55;85.16;102024.22;4960848;28;20035;-90
2023/06/07 06:14:15;;;;;;;16.70;7.57;;;;;;;14.57;85.12;102028.53;4979952;28;20054;-89
2023/06/07 06:16:41;;;;;;;16.48;7.28;;;;;;;14.66;85.90;102035.31;4973345;28;20038;-89
2023/06/07 06:19:06;;;;;;;13.18;6.85;;;;;;;14.72;81.73;102019.53;4970864;28;20273;-89
2023/06/07 06:21:32;;;;;;;16.90;7.07;;;;;;;14.86;83.19;102033.13;4963510;28;20194;-90
2023/06/07 06:23:57;;;;;;;14.65;7.25;;;;;;;14.96;81.33;102023.31;4981050;28;20098;-89
2023/06/07 06:26:27;;;;;;;18.38;7.05;;;;;;;15.09;81.54;102021.28;4982533;28;20181;-88
2023/06/07 06:28:53;;;;;;;14.75;7.05;;;;;;;15.24;81.93;102019.16;4962970;28;20030;-89
2023/06/07 06:31:21;;;;;;;16.52;7.10;;;;;;;15.39;83.10;102031.88;4961384;28;20114;-88
2023/06/07 06:33:49;;;;;;;15.10;7.20;;;;;;;15.49;79.82;102036.88;4962969;28;20034;-89
2023/06/07 06:36:15;;;;;;;13.88;7.22;;;;;;;15.52;77.93;102034.16;4967018;28;20076;-88
2023/06/07 06:38:43;;;;;;;18.00;7.63;;;;;;;15.45;77.32;102038.69;4981806;28;20065;-88
2023/06/07 06:41:11;;;;;;;15.30;7.20;;;;;;;15.42;80.80;102038.78;4980555;28;20053;-88
2023/06/07 06:43:37;;;;;;;14.40;7.40;;;;;;;15.38;78.50;102039.72;4981728;28;20507;-89
2023/06/07 06:46:03;;;;;;;15.60;7.43;;;;;;;15.26;77.72;102035.66;4959268;28;20173;-89
2023/06/07 06:48:54;;;;;;;18.23;7.15;;;;;;;15.30;79.96;102039.06;4974303;28;20154;-89
2023/06/07 06:51:27;;;;;;;12.52;6.90;;;;;;;15.23;82.85;102040.94;4989338;28;20030;-94
2023/06/07 06:53:53;;;;;;;15.25;7.50;;;;;;;15.23;81.10;102040.94;4996277;28;20031;-93
2023/06/07 06:56:24;;;;;;;16.55;6.78;;;;;;;15.23;79.65;102045.31;5001481;28;20089;-93
2023/06/07 06:58:57;;;;;;;13.57;6.82;;;;;;;15.28;82.28;102052.19;4999686;28;20121;-93
2023/06/07 07:02:01;;;;;;;12.88;6.65;;;;;;;15.42;79.45;102062.28;5009541;28;20054;-92
2023/06/07 07:04:34;;;;;;;15.53;6.80;;;;;;;15.49;80.47;102069.06;4997143;28;20050;-95
2023/06/07 07:07:07;;;;;;;16.05;6.90;;;;;;;15.51;78.84;102066.41;4995769;28;20286;-92
2023/06/07 07:12:27;;;;;;;14.38;6.88;;;;;;;15.69;81.31;102061.63;4996965;28;20046;-91
2023/06/07 07:14:55;;;;;;;14.00;7.18;;;;;;;15.80;82.57;102066.59;4988281;28;20045;-92
2023/06/07 07:17:23;;;;;;;17.08;6.80;;;;;;;15.94;77.29;102079.31;4999569;28;20100;-94
2023/06/07 07:19:57;;;;;;;14.15;7.18;;;;;;;15.93;77.43;102062.75;4995435;28;20156;-93
2023/06/07 07:22:39;;;;;;;15.60;6.70;;;;;;;15.99;76.38;102067.81;5000029;28;20050;-93
2023/06/07 07:25:30;;;;;;;17.13;6.75;;;;;;;16.00;76.55;102060.81;5008468;28;20109;-93
2023/06/07 07:27:58;;;;;;;15.00;6.82;;;;;;;15.95;77.06;102054.88;5008154;28;20119;-94
2023/06/07 07:30:26;;;;;;;18.63;7.57;;;;;;;16.01;76.79;102057.31;5003093;28;20030;-90
2023/06/07 07:32:55;;;;;;;14.27;6.57;;;;;;;16.03;75.81;102059.00;5004679;28;20033;-90
2023/06/07 07:35:26;;;;;;;14.77;6.90;;;;;;;16.13;77.78;102064.84;4994871;28;20049;-90
2023/06/07 07:37:54;;;;;;;15.75;6.80;;;;;;;16.12;78.92;102069.19;4995525;28;20038;-91
2023/06/07 07:40:25;;;;;;;13.88;6.80;;;;;;;16.16;78.11;102067.38;4992577;28;20046;-91
2023/06/07 07:42:51;;;;;;;16.88;6.70;;;;;;;16.27;77.69;102057.47;4995183;28;20034;-91
2023/06/07 07:45:16;;;;;;;18.13;7.38;;;;;;;16.38;79.51;102058.00;4993440;28;20041;-91
2023/06/07 07:47:44;;;;;;;15.02;6.88;;;;;;;16.45;78.21;102064.78;4987625;28;20054;-90
2023/06/07 07:50:24;;;;;;;18.75;7.00;;;;;;;16.58;77.13;102071.38;4993904;28;20050;-90
2023/06/07 07:52:49;;;;;;;16.83;6.72;;;;;;;16.61;78.36;102078.34;4978868;28;20034;-89
2023/06/07 07:55:18;;;;;;;18.85;7.45;;;;;;;16.70;77.82;102087.69;4976827;28;20038;-91
2023/06/07 07:57:46;;;;;;;16.00;7.07;;;;;;;16.63;73.37;102076.53;4976479;28;20133;-92
2023/06/07 08:00:15;;;;;;;14.23;6.70;;;;;;;16.73;73.79;102069.25;4978532;28;20034;-91
2023/06/07 08:02:46;;;;;;;12.07;6.60;;;;;;;17.20;73.75;102079.13;4981901;28;20043;-91
2023/06/07 08:05:11;;;;;;;16.92;6.88;;;;;;;17.86;73.18;102067.41;4974959;28;20403;-91
2023/06/07 08:08:03;;;;;;;14.10;6.80;;;;;;;18.71;72.47;102061.69;4976374;28;20475;-91
2023/06/07 08:10:32;;;;;;;15.38;6.93;;;;;;;19.56;68.34;102063.56;4986111;28;20061;-92
2023/06/07 08:13:09;;;;;;;14.88;6.25;;;;;;;20.09;66.85;102049.88;4979731;28;20043;-92
2023/06/07 08:15:38;;;;;;;13.00;6.60;;;;;;;20.31;58.75;102066.44;4981746;28;20039;-92
2023/06/07 08:18:06;;;;;;;16.20;6.40;;;;;;;20.30;58.17;102061.25;4982202;28;20086;-91
2023/06/07 08:20:41;;;;;;;15.13;6.18;;;;;;;20.52;58.87;102069.06;4978573;28;20112;-92
2023/06/07 08:23:09;;;;;;;12.13;6.40;;;;;;;20.52;57.18;102075.19;4985764;28;20104;-92
2023/06/07 08:25:53;;;;;;;14.45;6.25;;;;;;;20.27;60.00;102067.50;4980481;28;20038;-92
2023/06/07 08:28:20;;;;;;;13.25;6.30;;;;;;;20.40;60.16;102066.03;4986317;28;20041;-92
2023/06/07 08:30:47;;;;;;;13.48;6.85;;;;;;;20.43;59.26;102063.28;4981573;28;20050;-92
2023/06/07 08:33:13;;;;;;;13.45;6.63;;;;;;;20.57;61.10;102069.69;4978548;28;20141;-90
2023/06/07 08:35:38;;;;;;;17.65;7.00;;;;;;;20.65;57.63;102059.66;4979121;28;20225;-89
2023/06/07 08:38:08;;;;;;;11.07;6.43;;;;;;;20.81;62.57;102056.22;4981273;28;20034;-91
2023/06/07 08:40:35;;;;;;;17.15;6.80;;;;;;;20.83;56.62;102054.38;4984045;28;20040;-91
2023/06/07 08:43:07;;;;;;;15.23;6.63;;;;;;;20.84;57.95;102055.25;4978885;28;20026;-90
2023/06/07 08:45:35;;;;;;;13.30;6.45;;;;;;;20.83;61.01;102058.81;4982111;28;20046;-90
2023/06/07 08:48:08;;;;;;;14.55;6.55;;;;;;;20.72;56.02;102071.63;4995459;28;20070;-90
2023/06/07 08:50:34;;;;;;;13.23;7.13;;;;;;;20.48;59.71;102052.53;4980239;28;20089;-90
2023/06/07 08:53:16;;;;;;;14.27;6.75;;;;;;;20.43;57.99;102065.91;4981933;28;20101;-90
2023/06/07 08:55:43;;;;;;;14.05;6.32;;;;;;;20.52;61.12;102067.28;4980321;28;20030;-90
2023/06/07 08:58:16;;;;;;;14.85;6.63;;;;;;;20.59;56.90;102066.09;4981457;28;20069;-91
2023/06/07 09:00:41;;;;;;;16.75;7.30;;;;;;;20.50;58.03;102069.13;4982296;28;20026;-90
2023/06/07 09:03:07;;;;;;;16.05;7.30;;;;;;;20.46;59.03;102075.47;4980072;28;20047;-91
2023/06/07 09:05:36;;;;;;;13.07;6.72;;;;;;;20.38;60.21;102070.53;4978969;28;20077;-90
2023/06/07 09:08:03;;;;;;;14.93;7.65;;;;;;;20.39;57.21;102074.91;4983805;28;20475;-90
2023/06/07 09:10:29;;;;;;;16.10;7.15;;;;;;;20.43;62.06;102078.22;4985635;28;20049;-89
2023/06/07 09:12:57;;;;;;;15.00;7.22;;;;;;;20.52;61.62;102063.81;4985322;28;20110;-90
2023/06/07 09:15:22;;;;;;;15.10;6.80;;;;;;;20.68;63.11;102076.19;4984569;28;20046;-89
2023/06/07 09:17:58;;;;;;;22.48;7.53;;;;;;;20.87;63.51;102074.44;4986105;28;20030;-90
2023/06/07 09:20:25;;;;;;;15.30;7.55;;;;;;;21.05;56.36;102066.56;4985852;28;20106;-90
2023/06/07 09:23:14;;;;;;;16.10;7.57;;;;;;;21.15;59.16;102071.28;4983794;28;20427;-89
2023/06/07 09:25:47;;;;;;;17.33;7.38;;;;;;;21.19;57.94;102062.38;4984411;28;20046;-89
2023/06/07 09:28:15;;;;;;;17.77;7.97;;;;;;;21.11;58.34;102069.75;4986437;28;20042;-89
2023/06/07 09:30:56;;;;;;;14.77;7.70;;;;;;;20.95;58.59;102070.56;4984477;28;20109;-89
2023/06/07 09:33:28;;;;;;;17.20;7.50;;;;;;;20.71;59.22;102054.13;4985870;28;20125;-89
2023/06/07 09:36:06;;;;;;;17.85;7.72;;;;;;;20.53;57.97;102074.28;4985771;28;20039;-90
2023/06/07 09:38:33;;;;;;;15.13;7.72;;;;;;;20.21;58.33;102064.28;4983169;28;20050;-90
2023/06/07 09:40:59;;;;;;;16.73;8.73;;;;;;;20.05;59.07;102069.38;4985723;28;20042;-91
2023/06/07 09:43:55;;;;;;;19.05;8.82;;;;;;;19.99;60.01;102074.91;4983015;28;20038;-92
2023/06/07 09:46:33;;;;;;;12.50;7.60;;;;;;;19.75;62.89;102063.63;4981892;28;20082;-91
2023/06/07 09:48:58;;;;;;;28.58;8.55;;;;;;;19.62;63.58;102063.31;4998401;28;20193;-90
2023/06/07 09:51:27;;;;;;;17.55;8.27;;;;;;;19.50;62.26;102055.06;4981108;28;20494;-91
2023/06/07 09:54:00;;;;;;;13.45;7.47;;;;;;;19.41;63.93;102055.41;4980836;28;20105;-90
2023/06/07 09:56:47;;;;;;;12.70;7.82;;;;;;;19.45;65.31;102067.53;4987684;28;20043;-91
2023/06/07 09:59:16;;;;;;;16.92;7.85;;;;;;;19.46;62.92;102059.59;4983632;28;21151;-91
2023/06/07 10:01:42;;;;;;;14.65;7.45;;;;;;;19.51;64.94;102057.66;4980718;28;20045;-91
2023/06/07 10:04:08;;;;;;;14.80;7.82;;;;;;;19.60;65.40;102061.66;4984312;28;20069;-91
2023/06/07 10:06:38;;;;;;;18.42;7.80;;;;;;;19.65;63.34;102068.41;4985998;28;20041;-91
2023/06/07 10:09:08;;;;;;;14.40;7.72;;;;;;;19.66;62.40;102061.38;4984112;28;20042;-91
2023/06/07 10:11:36;;;;;;;19.73;8.50;;;;;;;19.55;66.71;102048.69;4984717;28;20038;-91
2023/06/07 10:14:09;;;;;;;14.68;7.93;;;;;;;19.46;64.01;102048.19;4982531;28;20034;-91
2023/06/07 10:16:41;;;;;;;17.10;8.07;;;;;;;19.43;66.21;102046.56;4981956;28;20403;-91
2023/06/07 10:19:15;;;;;;;15.52;8.02;;;;;;;19.49;68.12;102062.09;4982742;28;20065;-92
2023/06/07 10:21:43;;;;;;;;;;;;;;;19.68;64.24;102062.19;4982799;28;20427;-90
2023/06/07 10:24:13;;;;;;;17.63;8.30;;;;;;;19.58;65.26;102055.63;4980417;28;19922;-91
2023/06/07 10:26:55;;;;;;;17.30;8.10;;;;;;;19.73;65.21;102058.44;4999088;28;20194;-90
2023/06/07 10:29:32;;;;;;;21.45;8.27;;;;;;;19.85;64.30;102053.59;4991084;28;20283;-91
2023/06/07 10:32:15;;;;;;;17.50;8.15;;;;;;;19.94;64.17;102048.78;5000015;28;20045;-91
2023/06/07 10:34:48;;;;;;;16.73;8.00;;;;;;;20.18;64.55;102035.47;4983727;28;20042;-91
2023/06/07 10:37:19;;;;;;;13.88;7.85;;;;;;;20.39;61.90;102031.91;4990156;28;20830;-90
2023/06/07 10:39:46;;;;;;;14.25;7.72;;;;;;;20.45;61.69;102039.50;4985789;28;20105;-91
2023/06/07 10:42:17;;;;;;;16.33;7.40;;;;;;;20.35;62.28;102041.69;4985102;28;20045;-91
2023/06/07 10:44:47;;;;;;;14.18;7.60;;;;;;;20.29;60.96;102034.03;4988456;28;20105;-90
2023/06/07 10:47:27;;;;;;;13.32;7.60;;;;;;;20.22;62.28;102040.50;4986119;28;20069;-90
2023/06/07 10:49:53;;;;;;;15.52;7.70;;;;;;;20.08;63.49;102032.38;4982900;28;20034;-90
2023/06/07 10:52:19;;;;;;;15.98;7.88;;;;;;;20.01;63.75;102031.78;4982767;28;20092;-91
2023/06/07 10:54:46;;;;;;;14.95;8.05;;;;;;;20.00;63.40;102035.34;4979453;28;20045;-90
2023/06/07 10:57:11;;;;;;;15.32;7.80;;;;;;;19.98;62.60;102026.69;4981553;28;20038;-91
2023/06/07 10:59:49;;;;;;;16.23;8.55;;;;;;;19.98;63.19;102033.72;4981334;28;20042;-91
2023/06/07 11:02:27;;;;;;;15.30;8.45;;;;;;;20.08;64.71;102038.50;4983808;28;20038;-93
2023/06/07 11:04:57;;;;;;;14.48;8.20;;;;;;;20.08;61.48;102029.75;4982819;28;20096;-92
2023/06/07 11:07:30;;;;;;;16.63;7.60;;;;;;;20.10;61.17;102041.91;4984438;28;20038;-92
2023/06/07 11:10:07;;;;;;;17.40;8.13;;;;;;;20.13;63.34;102040.91;4982094;28;20395;-92
2023/06/07 11:12:36;;;;;;;16.23;8.02;;;;;;;20.08;63.40;102027.97;4983162;28;20122;-90
2023/06/07 11:15:35;;;;;;;13.57;7.43;;;;;;;20.15;62.43;102030.31;4989577;28;20487;-91
2023/06/07 11:18:08;;;;;;;12.88;7.07;;;;;;;20.20;65.01;102017.81;4980494;28;20062;-89
2023/06/07 11:20:40;;;;;;;15.60;8.18;;;;;;;20.27;62.83;102027.13;4982879;28;20522;-91
2023/06/07 11:23:30;;;;;;;16.45;7.70;;;;;;;20.36;62.11;102021.50;4976122;28;20074;-91
2023/06/07 11:26:08;;;;;;;15.20;7.50;;;;;;;20.34;64.11;102013.66;4980498;28;20049;-91
2023/06/07 11:28:39;;;;;;;17.05;7.57;;;;;;;20.44;63.12;102008.81;4977890;28;20479;-91
2023/06/07 11:31:24;;;;;;;14.95;7.07;;;;;;;20.66;62.24;101999.00;4996414;28;20125;-91